Time;durP1;ratioP1;P1;durP2;ratioP2;P2;SDS_P1;SDS_P2;PMS_P1;PMS_P2;Temp;Humidity;BMP_temperature;BMP_pressure;BME280_temperature;BME280_humidity;BME280_pressure;Samples;Min_cycle;Max_cycle;Signal;HPM_P1;HPM_P2
2021/09/01 00:01:56;;;;;;;17.10;6.63;;;15.70;99.90;;;;;;5032102;28;20181;-70
2021/09/01 00:04:21;;;;;;;13.10;7.00;;;15.70;99.90;;;;;;5033564;28;20168;-70
2021/09/01 00:06:47;;;;;;;11.60;4.90;;;15.70;99.90;;;;;;5033143;28;20184;-70
2021/09/01 00:09:12;;;;;;;8.77;5.47;;;15.70;99.90;;;;;;5023546;28;20185;-70
2021/09/01 00:11:38;;;;;;;11.40;5.57;;;15.70;99.90;;;;;;5013750;28;20165;-70
2021/09/01 00:14:04;;;;;;;8.87;6.03;;;15.70;99.90;;;;;;5013586;28;20243;-70
2021/09/01 00:16:31;;;;;;;12.17;6.07;;;15.60;99.90;;;;;;5013388;28;20205;-70
2021/09/01 00:19:00;;;;;;;13.40;6.37;;;15.60;99.90;;;;;;5013495;28;20149;-70
2021/09/01 00:21:26;;;;;;;13.57;6.57;;;15.50;99.90;;;;;;5016130;28;20797;-70
2021/09/01 00:23:52;;;;;;;8.13;5.90;;;15.50;99.90;;;;;;5032106;28;20497;-70
2021/09/01 00:26:18;;;;;;;9.20;5.67;;;15.40;99.90;;;;;;5032858;28;20732;-70
2021/09/01 00:28:44;;;;;;;14.77;6.30;;;15.40;99.90;;;;;;5032691;28;20472;-70
2021/09/01 00:31:09;;;;;;;8.80;6.67;;;15.40;99.90;;;;;;5031043;28;20431;-70
2021/09/01 00:33:35;;;;;;;13.30;6.17;;;15.40;99.90;;;;;;5032933;28;20167;-70
2021/09/01 00:36:01;;;;;;;8.43;6.13;;;15.40;99.90;;;;;;5018950;28;20342;-70
2021/09/01 00:38:27;;;;;;;10.57;6.90;;;15.40;99.90;;;;;;5013368;28;20224;-70
2021/09/01 00:40:56;;;;;;;8.20;6.00;;;15.40;99.90;;;;;;5019381;28;20255;-70
2021/09/01 00:43:23;;;;;;;8.50;5.70;;;15.40;99.90;;;;;;5032892;28;20184;-70
2021/09/01 00:45:49;;;;;;;9.97;6.60;;;15.40;99.90;;;;;;5032952;28;20916;-70
2021/09/01 00:48:17;;;;;;;12.90;6.27;;;15.40;99.90;;;;;;5032546;28;20411;-70
2021/09/01 00:50:45;;;;;;;11.67;7.50;;;15.40;99.90;;;;;;5032759;28;20247;-70
2021/09/01 00:53:13;;;;;;;9.70;5.67;;;15.40;99.90;;;;;;5026074;28;20876;-70
2021/09/01 00:55:43;;;;;;;15.60;5.60;;;15.40;99.90;;;;;;5012827;28;20503;-70
2021/09/01 00:58:09;;;;;;;8.73;6.63;;;15.40;99.90;;;;;;5021435;28;20422;-70
2021/09/01 01:03:20;;;;;;;9.40;6.57;;;15.40;99.90;;;;;;5012050;28;20466;-70
2021/09/01 01:05:46;;;;;;;9.10;6.00;;;15.40;99.90;;;;;;5022504;28;20419;-70
2021/09/01 01:08:12;;;;;;;9.83;5.53;;;15.40;99.90;;;;;;5032751;28;20179;-70
2021/09/01 01:10:38;;;;;;;11.23;5.60;;;15.40;99.90;;;;;;5032320;28;20251;-70
2021/09/01 01:13:06;;;;;;;12.70;5.77;;;15.40;99.90;;;;;;5032405;28;20425;-70
2021/09/01 01:15:32;;;;;;;9.60;5.87;;;15.50;99.90;;;;;;5031991;28;20485;-70
2021/09/01 01:17:57;;;;;;;5.60;4.90;;;15.40;99.90;;;;;;5032379;28;20770;-70
2021/09/01 01:20:23;;;;;;;10.40;6.27;;;15.40;99.90;;;;;;5032238;28;20611;-70
2021/09/01 01:22:49;;;;;;;9.93;5.20;;;15.40;99.90;;;;;;5032353;28;20614;-70
2021/09/01 01:25:38;;;;;;;8.87;4.50;;;15.50;99.90;;;;;;5031022;28;20602;-70
2021/09/01 01:28:04;;;;;;;8.60;5.70;;;15.40;99.90;;;;;;5030091;28;20327;-70
2021/09/01 01:30:30;;;;;;;5.47;4.23;;;15.50;99.90;;;;;;5031890;28;20427;-70
2021/09/01 01:32:56;;;;;;;8.40;4.57;;;15.50;99.90;;;;;;5031940;28;20446;-71
2021/09/01 01:35:41;;;;;;;14.30;4.53;;;15.50;99.90;;;;;;5032027;28;20292;-70
2021/09/01 01:38:11;;;;;;;6.37;4.67;;;15.50;99.90;;;;;;5032207;28;20903;-71
2021/09/01 01:40:37;;;;;;;7.30;4.97;;;15.50;99.90;;;;;;5031922;28;20481;-70
2021/09/01 01:43:04;;;;;;;6.30;4.73;;;15.50;99.90;;;;;;5032180;28;20403;-70
2021/09/01 01:45:33;;;;;;;5.97;4.60;;;15.50;99.90;;;;;;5032202;28;20850;-70
2021/09/01 01:48:00;;;;;;;6.97;4.27;;;15.50;99.90;;;;;;5031995;28;20403;-70
2021/09/01 01:50:26;;;;;;;11.00;5.60;;;15.50;99.90;;;;;;5031332;28;20427;-70
2021/09/01 01:52:51;;;;;;;11.87;5.27;;;15.50;99.90;;;;;;5031424;28;20940;-70
2021/09/01 01:55:17;;;;;;;6.63;3.90;;;15.50;99.90;;;;;;5031659;28;20207;-70
2021/09/01 01:57:42;;;;;;;7.00;4.83;;;15.50;99.90;;;;;;5031762;28;20183;-70
2021/09/01 02:00:08;;;;;;;8.33;4.60;;;15.50;99.90;;;;;;5031943;28;20185;-70
2021/09/01 02:02:34;;;;;;;5.43;3.87;;;15.50;99.90;;;;;;5032293;28;20172;-70
2021/09/01 02:05:00;;;;;;;5.93;4.87;;;15.50;99.90;;;;;;5032118;28;20523;-70
2021/09/01 02:07:27;;;;;;;6.63;4.70;;;15.50;99.90;;;;;;5031913;28;20194;-70
2021/09/01 02:09:53;;;;;;;8.80;4.30;;;15.50;99.90;;;;;;5031838;28;20392;-70
2021/09/01 02:12:19;;;;;;;7.90;4.70;;;15.50;99.90;;;;;;5031889;28;20877;-70
2021/09/01 02:14:44;;;;;;;10.13;5.77;;;15.50;99.90;;;;;;5031583;28;20187;-70
2021/09/01 02:17:10;;;;;;;9.90;5.80;;;15.50;99.90;;;;;;5031848;28;20546;-70
2021/09/01 02:19:36;;;;;;;14.77;5.47;;;15.50;99.90;;;;;;5021109;28;20191;-70
2021/09/01 02:22:02;;;;;;;12.03;4.83;;;15.50;99.90;;;;;;5020236;28;20184;-70
2021/09/01 02:24:28;;;;;;;10.43;5.20;;;15.50;99.90;;;;;;5033929;28;20817;-70
2021/09/01 02:26:53;;;;;;;9.90;6.67;;;15.50;99.90;;;;;;5035237;28;20438;-70
2021/09/01 02:29:19;;;;;;;6.37;4.67;;;15.50;99.90;;;;;;5035610;28;20602;-70
2021/09/01 02:31:44;;;;;;;9.27;5.50;;;15.50;99.90;;;;;;5034121;28;20263;-70
2021/09/01 02:34:10;;;;;;;21.03;6.00;;;15.50;99.90;;;;;;5035337;28;20184;-73
2021/09/01 02:36:36;;;;;;;10.80;4.97;;;15.50;99.90;;;;;;5035118;28;20722;-73
2021/09/01 02:39:03;;;;;;;10.70;5.53;;;15.50;99.90;;;;;;5035144;28;20247;-73
2021/09/01 02:41:29;;;;;;;7.07;4.80;;;15.40;99.90;;;;;;5034808;28;20430;-73
2021/09/01 02:43:54;;;;;;;6.80;5.23;;;15.40;99.90;;;;;;5035274;28;20395;-73
2021/09/01 02:46:21;;;;;;;10.67;5.80;;;15.40;99.90;;;;;;5035138;28;20888;-73
2021/09/01 02:48:46;;;;;;;9.63;6.80;;;15.50;99.90;;;;;;5035023;28;20168;-73
2021/09/01 02:51:12;;;;;;;9.50;5.63;;;15.50;99.90;;;;;;5035047;28;20404;-73
2021/09/01 02:53:38;;;;;;;7.60;6.10;;;15.50;99.90;;;;;;5024434;28;20209;-73
2021/09/01 02:56:04;;;;;;;8.03;5.73;;;15.40;99.90;;;;;;5014989;28;20455;-73
2021/09/01 02:58:29;;;;;;;11.73;5.60;;;15.40;99.90;;;;;;5034277;28;20266;-73
2021/09/01 03:00:55;;;;;;;12.37;5.77;;;15.40;99.90;;;;;;5033546;28;20951;-73
2021/09/01 03:03:21;;;;;;;9.87;5.53;;;15.40;99.90;;;;;;5034646;28;20165;-73
2021/09/01 03:05:46;;;;;;;15.63;7.10;;;15.40;99.90;;;;;;5034641;28;20201;-73
2021/09/01 03:08:12;;;;;;;8.83;5.90;;;15.40;99.90;;;;;;5034542;28;20171;-73
2021/09/01 03:10:38;;;;;;;13.37;6.47;;;15.40;99.90;;;;;;5034501;28;20157;-73
2021/09/01 03:13:03;;;;;;;12.60;6.70;;;15.40;99.90;;;;;;5034564;28;20246;-73
2021/09/01 03:15:29;;;;;;;13.10;6.40;;;15.40;99.90;;;;;;5033989;28;20708;-73
2021/09/01 03:17:55;;;;;;;6.63;4.50;;;15.40;99.90;;;;;;5032929;28;20185;-73
2021/09/01 03:20:21;;;;;;;17.53;6.50;;;15.40;99.90;;;;;;5014628;28;20392;-73
2021/09/01 03:22:46;;;;;;;14.57;7.03;;;15.40;99.90;;;;;;5014505;28;20219;-73
2021/09/01 03:25:12;;;;;;;12.77;6.20;;;15.40;99.90;;;;;;5027428;28;20168;-73
2021/09/01 03:27:37;;;;;;;13.97;6.40;;;15.40;99.90;;;;;;5034249;28;20187;-73
2021/09/01 03:30:04;;;;;;;11.17;6.17;;;15.40;99.90;;;;;;5033952;28;20168;-73
2021/09/01 03:32:29;;;;;;;10.43;6.67;;;15.40;99.90;;;;;;5033177;28;20180;-73
2021/09/01 03:34:55;;;;;;;11.10;6.87;;;15.40;99.90;;;;;;5033841;28;20457;-73
2021/09/01 03:37:21;;;;;;;11.97;6.10;;;15.40;99.90;;;;;;5034010;28;20175;-73
2021/09/01 03:39:46;;;;;;;10.20;6.53;;;15.40;99.90;;;;;;5034139;28;20161;-73
2021/09/01 03:42:12;;;;;;;11.20;6.70;;;15.40;99.90;;;;;;5034074;28;20210;-73
2021/09/01 03:44:37;;;;;;;11.47;7.27;;;15.40;99.90;;;;;;5033835;28;20203;-73
2021/09/01 03:47:03;;;;;;;10.83;6.33;;;15.40;99.90;;;;;;5034072;28;20172;-73
2021/09/01 03:49:29;;;;;;;12.30;7.30;;;15.30;99.90;;;;;;5033104;28;20190;-73
2021/09/01 03:51:54;;;;;;;11.77;6.50;;;15.30;99.90;;;;;;5028745;28;20229;-73
2021/09/01 03:54:20;;;;;;;9.53;5.73;;;15.30;99.90;;;;;;5025952;28;20181;-73
2021/09/01 03:56:45;;;;;;;8.33;5.50;;;15.30;99.90;;;;;;5030286;28;20214;-73
2021/09/01 03:59:11;;;;;;;8.87;6.20;;;15.30;99.90;;;;;;5025025;28;20342;-73
2021/09/01 04:01:36;;;;;;;11.93;6.77;;;15.30;99.90;;;;;;5026687;28;20708;-73
2021/09/01 04:04:04;;;;;;;13.17;6.23;;;15.30;99.90;;;;;;5025692;28;20190;-73
2021/09/01 04:06:29;;;;;;;11.53;6.60;;;15.30;99.90;;;;;;5033132;28;20524;-73
2021/09/01 04:08:55;;;;;;;15.67;7.87;;;15.20;99.90;;;;;;5033457;28;20448;-73
2021/09/01 04:11:20;;;;;;;21.93;7.43;;;15.20;99.90;;;;;;5031334;28;20231;-73
2021/09/01 04:13:46;;;;;;;12.13;5.87;;;15.20;99.90;;;;;;5025414;28;20191;-73
2021/09/01 04:16:11;;;;;;;11.63;7.20;;;15.20;99.90;;;;;;5033192;28;20207;-73
2021/09/01 04:18:37;;;;;;;7.97;6.43;;;15.20;99.90;;;;;;5020905;28;20189;-73
2021/09/01 04:21:02;;;;;;;13.37;5.97;;;15.20;99.90;;;;;;5033323;28;20163;-73
2021/09/01 04:23:29;;;;;;;8.70;6.33;;;15.20;99.90;;;;;;5031732;28;20219;-73
2021/09/01 04:25:55;;;;;;;9.40;6.30;;;15.20;99.90;;;;;;5013517;28;20623;-73
2021/09/01 04:28:20;;;;;;;8.20;5.90;;;15.20;99.90;;;;;;5024624;28;20518;-73
2021/09/01 04:30:46;;;;;;;8.23;5.60;;;15.20;99.90;;;;;;5021445;28;20446;-73
2021/09/01 04:33:11;;;;;;;12.97;6.73;;;15.20;99.90;;;;;;5029291;28;20202;-73
2021/09/01 04:35:37;;;;;;;9.67;5.90;;;15.10;99.90;;;;;;5028989;28;20207;-73
2021/09/01 04:38:03;;;;;;;17.07;6.43;;;15.10;99.90;;;;;;5029043;28;20180;-73
2021/09/01 04:40:29;;;;;;;11.47;7.73;;;15.10;99.90;;;;;;5031169;28;20168;-72
2021/09/01 04:42:55;;;;;;;14.10;7.57;;;15.10;99.90;;;;;;5031884;28;20422;-72
2021/09/01 04:45:20;;;;;;;13.43;6.77;;;15.10;99.90;;;;;;5027556;28;20203;-73
2021/09/01 04:47:46;;;;;;;15.90;7.50;;;15.10;99.90;;;;;;5026651;28;20184;-73
2021/09/01 04:50:12;;;;;;;13.30;7.40;;;15.10;99.90;;;;;;5023591;28;20179;-73
2021/09/01 04:52:38;;;;;;;8.90;6.73;;;15.10;99.90;;;;;;5028825;28;20179;-73
2021/09/01 04:55:05;;;;;;;10.23;6.90;;;15.10;99.90;;;;;;5032776;28;20925;-73
2021/09/01 04:57:30;;;;;;;14.50;8.00;;;15.10;99.90;;;;;;5030379;28;20517;-73
2021/09/01 04:59:56;;;;;;;8.87;7.00;;;15.10;99.90;;;;;;5031628;28;20526;-73
2021/09/01 05:02:22;;;;;;;11.93;8.60;;;15.10;99.90;;;;;;5030733;28;20566;-73
2021/09/01 05:04:47;;;;;;;11.37;7.47;;;15.10;99.90;;;;;;5029551;28;20194;-73
2021/09/01 05:07:13;;;;;;;10.73;6.40;;;15.10;99.90;;;;;;5033260;28;20293;-73
2021/09/01 05:09:38;;;;;;;14.63;6.33;;;15.10;99.90;;;;;;5032897;28;20529;-73
2021/09/01 05:12:04;;;;;;;14.37;6.93;;;15.10;99.90;;;;;;5030266;28;20587;-72
2021/09/01 05:14:30;;;;;;;10.03;6.27;;;15.10;99.90;;;;;;5029366;28;20187;-72
2021/09/01 05:16:55;;;;;;;15.13;6.90;;;15.10;99.90;;;;;;5026176;28;20203;-73
2021/09/01 05:19:21;;;;;;;8.57;7.30;;;15.10;99.90;;;;;;5024343;28;20189;-73
2021/09/01 05:21:52;;;;;;;15.47;9.70;;;15.10;99.90;;;;;;5028118;28;20203;-73
2021/09/01 05:24:42;;;;;;;11.03;5.93;;;15.10;99.90;;;;;;5030394;28;20188;-73
2021/09/01 05:29:48;;;;;;;14.20;7.47;;;15.10;99.90;;;;;;5120668;27;20592;-75
2021/09/01 05:32:18;;;;;;;14.93;7.10;;;15.10;99.90;;;;;;5101036;28;20448;-75
2021/09/01 05:34:46;;;;;;;17.30;7.50;;;15.20;99.90;;;;;;5084941;28;20428;-75
2021/09/01 05:37:13;;;;;;;11.20;7.23;;;15.20;99.90;;;;;;5088019;28;20419;-75
2021/09/01 05:39:41;;;;;;;11.30;6.67;;;15.20;99.90;;;;;;5069294;28;20432;-75
2021/09/01 05:42:16;;;;;;;11.30;7.67;;;15.20;99.90;;;;;;5080537;28;20416;-74
2021/09/01 05:44:42;;;;;;;15.30;7.60;;;15.20;99.90;;;;;;5087759;28;20486;-75
2021/09/01 05:47:10;;;;;;;8.17;5.73;;;15.20;99.90;;;;;;5087341;28;20409;-75
2021/09/01 05:49:36;;;;;;;10.50;5.80;;;15.20;99.90;;;;;;5087695;28;20486;-75
2021/09/01 05:52:07;;;;;;;14.00;5.43;;;15.20;99.90;;;;;;5084302;28;20431;-75
2021/09/01 05:54:33;;;;;;;9.37;6.67;;;15.20;99.90;;;;;;5084616;28;20425;-74
2021/09/01 05:57:17;;;;;;;12.83;7.43;;;15.30;99.90;;;;;;5085763;28;20451;-75
2021/09/01 05:59:54;;;;;;;8.27;5.67;;;15.30;99.90;;;;;;5076950;28;20413;-75
2021/09/01 06:02:24;;;;;;;10.40;6.10;;;15.30;99.90;;;;;;5081351;28;20435;-75
2021/09/01 06:04:52;;;;;;;6.20;4.97;;;15.30;99.90;;;;;;5086883;28;20428;-75
2021/09/01 06:07:18;;;;;;;10.07;7.07;;;15.30;99.90;;;;;;5083979;28;20436;-75
2021/09/01 06:09:47;;;;;;;11.60;6.00;;;15.30;99.90;;;;;;5084946;28;20800;-75
2021/09/01 06:12:19;;;;;;;13.23;6.50;;;15.30;99.90;;;;;;5088034;28;20909;-76
2021/09/01 06:14:45;;;;;;;14.30;6.10;;;15.40;99.90;;;;;;5085729;28;20804;-75
2021/09/01 06:17:11;;;;;;;8.17;6.73;;;15.40;99.90;;;;;;5086468;28;20432;-77
2021/09/01 06:19:38;;;;;;;9.93;6.90;;;15.40;99.90;;;;;;5083237;28;20183;-77
2021/09/01 06:22:06;;;;;;;11.27;6.60;;;15.40;99.90;;;;;;5084039;28;20189;-76
2021/09/01 06:24:32;;;;;;;9.73;6.17;;;15.40;99.90;;;;;;5088013;28;20496;-77
2021/09/01 06:26:59;;;;;;;15.00;7.90;;;15.50;99.90;;;;;;5079437;28;20498;-76
2021/09/01 06:29:25;;;;;;;13.03;7.27;;;15.50;99.90;;;;;;5078043;28;21052;-76
2021/09/01 06:31:50;;;;;;;11.80;6.57;;;15.50;99.90;;;;;;5083412;28;20424;-76
2021/09/01 06:34:16;;;;;;;11.43;6.77;;;15.50;99.90;;;;;;5086676;28;20229;-76
2021/09/01 06:36:42;;;;;;;10.50;6.33;;;15.50;99.90;;;;;;5075865;28;20183;-75
2021/09/01 06:39:08;;;;;;;11.30;6.20;;;15.50;99.90;;;;;;5070896;28;20184;-76
2021/09/01 06:41:33;;;;;;;9.20;5.70;;;15.60;99.90;;;;;;5080476;28;20182;-75
2021/09/01 06:43:59;;;;;;;11.27;6.27;;;15.60;99.90;;;;;;5074606;28;20187;-75
2021/09/01 06:46:40;;;;;;;17.63;7.17;;;15.60;99.90;;;;;;5075931;28;20187;-75
2021/09/01 06:49:06;;;;;;;9.03;5.90;;;15.60;99.90;;;;;;5074938;28;20499;-75
2021/09/01 06:51:31;;;;;;;11.50;6.40;;;15.60;99.90;;;;;;5074775;28;20429;-77
2021/09/01 06:53:57;;;;;;;8.43;6.03;;;15.70;99.90;;;;;;5068038;28;20184;-76
2021/09/01 06:56:23;;;;;;;11.40;5.23;;;15.70;99.90;;;;;;5075063;28;20183;-76
2021/09/01 06:58:48;;;;;;;16.27;6.30;;;15.70;99.90;;;;;;5073630;28;20183;-76
2021/09/01 07:01:14;;;;;;;8.87;6.10;;;15.80;99.90;;;;;;5072089;28;20183;-76
2021/09/01 07:03:39;;;;;;;13.40;5.83;;;15.80;99.90;;;;;;5074080;28;20211;-75
2021/09/01 07:06:05;;;;;;;13.67;6.50;;;15.80;99.90;;;;;;5074972;28;20164;-76
2021/09/01 07:08:31;;;;;;;8.70;5.80;;;15.80;99.90;;;;;;5067512;28;20199;-75
2021/09/01 07:10:56;;;;;;;9.50;5.90;;;15.80;99.90;;;;;;5066625;28;20571;-75
2021/09/01 07:13:22;;;;;;;13.13;7.00;;;15.80;99.90;;;;;;5068592;28;20660;-75
2021/09/01 07:15:48;;;;;;;15.40;7.97;;;15.90;99.90;;;;;;5068684;28;20663;-75
2021/09/01 07:18:14;;;;;;;10.67;7.10;;;15.90;99.90;;;;;;5070305;28;20647;-76
2021/09/01 07:20:40;;;;;;;10.30;6.30;;;15.90;99.90;;;;;;5073296;28;20412;-75
2021/09/01 07:23:06;;;;;;;11.77;6.30;;;15.90;99.90;;;;;;5069791;28;20171;-76
2021/09/01 07:25:33;;;;;;;11.10;7.00;;;16.00;99.90;;;;;;5068410;28;21038;-76
2021/09/01 07:28:00;;;;;;;11.40;6.13;;;16.00;99.90;;;;;;5068811;28;20982;-76
2021/09/01 07:30:25;;;;;;;9.50;6.00;;;16.00;99.90;;;;;;5069178;28;20476;-76
2021/09/01 07:32:51;;;;;;;10.93;6.13;;;16.00;99.90;;;;;;5069585;28;20433;-76
2021/09/01 07:35:17;;;;;;;17.90;6.67;;;16.00;99.90;;;;;;5067767;28;20171;-76
2021/09/01 07:37:45;;;;;;;8.60;5.80;;;16.00;99.90;;;;;;5067959;28;20175;-76
2021/09/01 07:40:13;;;;;;;12.87;7.20;;;16.10;99.90;;;;;;5069041;28;20957;-76
2021/09/01 07:42:39;;;;;;;9.77;6.80;;;16.10;99.90;;;;;;5068896;28;20501;-75
2021/09/01 07:45:07;;;;;;;9.07;6.60;;;16.10;99.90;;;;;;5065029;28;20483;-75
2021/09/01 07:47:32;;;;;;;9.63;5.10;;;16.10;99.90;;;;;;5063316;28;20926;-75
2021/09/01 07:49:58;;;;;;;10.03;5.57;;;16.10;99.90;;;;;;5067093;28;20433;-75
2021/09/01 07:52:23;;;;;;;7.40;4.90;;;16.10;99.90;;;;;;5064683;28;20176;-75
2021/09/01 07:54:49;;;;;;;8.43;5.80;;;16.10;99.90;;;;;;5064856;28;20183;-75
2021/09/01 07:57:14;;;;;;;9.40;6.10;;;16.20;99.90;;;;;;5064797;28;20258;-75
2021/09/01 07:59:40;;;;;;;15.13;6.70;;;16.20;99.90;;;;;;5064980;28;20195;-75
2021/09/01 08:02:06;;;;;;;15.23;6.60;;;16.20;99.90;;;;;;5065629;28;20270;-76
2021/09/01 08:04:32;;;;;;;14.00;8.67;;;16.20;99.90;;;;;;5065648;28;20180;-76
2021/09/01 08:06:57;;;;;;;9.37;7.00;;;16.20;99.90;;;;;;5066660;28;20440;-75
2021/09/01 08:09:23;;;;;;;11.83;7.53;;;16.20;99.90;;;;;;5067007;28;20582;-75
2021/09/01 08:11:48;;;;;;;11.73;6.70;;;16.20;99.90;;;;;;5065577;28;20183;-75
2021/09/01 08:14:14;;;;;;;10.77;6.40;;;16.20;99.90;;;;;;5066568;28;20190;-75
2021/09/01 08:16:40;;;;;;;9.10;7.37;;;16.20;99.90;;;;;;5065601;28;20168;-76
2021/09/01 08:19:05;;;;;;;11.90;7.50;;;16.30;99.90;;;;;;5066625;28;20222;-76
2021/09/01 08:21:31;;;;;;;14.23;7.30;;;16.30;99.90;;;;;;5067782;28;20251;-76
2021/09/01 08:23:56;;;;;;;13.17;6.50;;;16.30;99.90;;;;;;5063241;28;20167;-75
2021/09/01 08:26:22;;;;;;;11.93;6.87;;;16.30;99.90;;;;;;5066778;28;20198;-76
2021/09/01 08:28:49;;;;;;;10.77;6.90;;;16.40;99.90;;;;;;5067633;28;20706;-76
2021/09/01 08:31:16;;;;;;;11.73;7.80;;;16.40;99.90;;;;;;5066113;28;20633;-76
2021/09/01 08:33:42;;;;;;;11.47;5.97;;;16.40;99.90;;;;;;5067238;28;21022;-76
2021/09/01 08:36:07;;;;;;;8.37;5.60;;;16.50;99.90;;;;;;5065061;28;20548;-76
2021/09/01 08:38:33;;;;;;;7.70;6.30;;;16.50;99.90;;;;;;5060621;28;20189;-75
2021/09/01 08:40:58;;;;;;;11.60;6.20;;;16.50;99.90;;;;;;5064828;28;20211;-75
2021/09/01 08:43:24;;;;;;;13.67;9.83;;;16.50;99.90;;;;;;5069045;28;20194;-76
2021/09/01 08:45:50;;;;;;;14.27;9.70;;;16.50;99.90;;;;;;5068621;28;20223;-75
2021/09/01 08:48:17;;;;;;;13.47;8.70;;;16.50;99.90;;;;;;5083771;28;20222;-76
2021/09/01 08:50:43;;;;;;;9.90;6.20;;;16.60;99.90;;;;;;5068809;28;20542;-76
2021/09/01 08:53:09;;;;;;;10.40;5.87;;;16.60;99.90;;;;;;5066536;28;20436;-76
2021/09/01 08:55:34;;;;;;;12.37;7.57;;;16.60;99.90;;;;;;5066868;28;20425;-75
2021/09/01 08:58:00;;;;;;;12.60;6.23;;;16.60;99.90;;;;;;5067040;28;20191;-75
2021/09/01 09:00:26;;;;;;;14.90;5.83;;;16.50;99.90;;;;;;5063536;28;20219;-76
2021/09/01 09:02:56;;;;;;;8.60;5.17;;;16.50;99.90;;;;;;5065069;28;20456;-76
2021/09/01 09:05:31;;;;;;;9.47;6.80;;;16.50;99.90;;;;;;5067184;28;20167;-76
2021/09/01 09:07:57;;;;;;;11.13;6.00;;;16.60;99.90;;;;;;5067103;28;20456;-76
2021/09/01 09:10:27;;;;;;;9.23;6.20;;;16.60;99.90;;;;;;5064763;28;21867;-76
2021/09/01 09:13:03;;;;;;;7.00;5.93;;;16.50;99.90;;;;;;5064409;28;20421;-76
2021/09/01 09:15:28;;;;;;;10.83;6.57;;;16.50;99.90;;;;;;5066075;28;20429;-76
2021/09/01 09:17:54;;;;;;;8.83;5.97;;;16.50;99.90;;;;;;5066428;28;20429;-76
2021/09/01 09:20:31;;;;;;;10.70;6.13;;;16.50;99.90;;;;;;5066605;28;20240;-76
2021/09/01 09:22:58;;;;;;;10.90;6.63;;;16.50;99.90;;;;;;5066017;28;20178;-76
2021/09/01 09:25:28;;;;;;;8.47;6.20;;;16.50;99.90;;;;;;5066388;28;20414;-76
2021/09/01 09:27:57;;;;;;;9.87;7.30;;;16.50;99.90;;;;;;5070863;28;20958;-75
2021/09/01 09:36:03;;;;;;;13.60;8.20;;;16.60;99.90;;;;;;5068196;28;20641;-73
2021/09/01 09:41:08;;;;;;;22.50;9.00;;;16.50;99.90;;;;;;5096590;27;20984;-73
2021/09/01 09:43:35;;;;;;;13.27;8.00;;;16.60;99.90;;;;;;5088102;28;20798;-73
2021/09/01 09:46:04;;;;;;;12.73;8.83;;;16.60;99.90;;;;;;5089079;28;20428;-73
2021/09/01 09:48:31;;;;;;;13.77;9.20;;;16.60;99.90;;;;;;5089248;28;20405;-73
2021/09/01 09:50:59;;;;;;;12.93;8.97;;;16.60;99.90;;;;;;5089057;28;20420;-73
2021/09/01 09:53:30;;;;;;;20.77;10.93;;;16.60;99.90;;;;;;5087692;28;20429;-74
2021/09/01 09:58:57;;;;;;;12.00;9.37;;;16.60;99.90;;;;;;5051850;27;20586;-75
2021/09/01 10:01:25;;;;;;;15.07;9.60;;;16.60;99.90;;;;;;5049422;28;21046;-75
2021/09/01 10:03:52;;;;;;;11.80;8.60;;;16.70;99.90;;;;;;5050428;28;20510;-74
2021/09/01 10:06:19;;;;;;;15.27;10.20;;;16.60;99.90;;;;;;5053834;28;20957;-74
2021/09/01 10:08:47;;;;;;;17.37;11.27;;;16.70;99.90;;;;;;5053486;28;20414;-74
2021/09/01 10:11:15;;;;;;;17.87;12.80;;;16.70;99.90;;;;;;5049323;28;20415;-74
2021/09/01 10:13:43;;;;;;;14.90;10.43;;;16.60;99.90;;;;;;5053365;28;20916;-74
2021/09/01 10:19:10;;;;;;;18.90;11.47;;;16.70;99.90;;;;;;5062699;28;20526;-73
2021/09/01 10:21:39;;;;;;;19.53;12.47;;;16.70;99.90;;;;;;5048340;28;20998;-73
2021/09/01 10:30:02;;;;;;;17.47;10.10;;;16.70;99.90;;;;;;5060095;28;20554;-73
2021/09/01 10:37:54;;;;;;;16.70;11.57;;;16.80;99.90;;;;;;5101684;27;20524;-75
2021/09/01 10:42:59;;;;;;;17.20;11.73;;;17.00;99.90;;;;;;5066216;28;20521;-75
2021/09/01 10:48:16;;;;;;;18.77;11.17;;;17.10;99.90;;;;;;5067584;28;20583;-73
2021/09/01 10:50:45;;;;;;;20.23;12.83;;;17.10;99.90;;;;;;5066403;28;20483;-73
2021/09/01 10:56:15;;;;;;;17.10;10.90;;;17.20;99.90;;;;;;5067280;28;20548;-73
2021/09/01 10:58:42;;;;;;;17.20;12.00;;;17.30;99.90;;;;;;5036706;28;20508;-73
2021/09/01 11:01:22;;;;;;;19.67;12.23;;;17.40;99.90;;;;;;5036938;28;20436;-73
2021/09/01 11:04:02;;;;;;;16.40;11.47;;;17.50;99.90;;;;;;5040469;28;20442;-73
2021/09/01 11:06:36;;;;;;;14.37;10.17;;;17.50;99.90;;;;;;5049402;28;20428;-73
2021/09/01 11:14:43;;;;;;;18.27;12.10;;;17.60;99.90;;;;;;5054706;28;20574;-75
2021/09/01 11:17:11;;;;;;;16.17;11.50;;;17.70;99.90;;;;;;5037816;28;20427;-75
2021/09/01 11:19:39;;;;;;;17.23;11.60;;;17.70;99.90;;;;;;5045457;28;20420;-76
2021/09/01 11:22:07;;;;;;;15.13;11.80;;;17.70;99.90;;;;;;5050426;28;20774;-74
2021/09/01 11:24:54;;;;;;;17.13;11.67;;;17.80;99.90;;;;;;5037844;28;20750;-75
2021/09/01 11:27:23;;;;;;;13.40;10.37;;;17.90;99.90;;;;;;5047044;28;20427;-75
2021/09/01 11:29:50;;;;;;;15.63;11.03;;;17.80;99.90;;;;;;5044383;28;20427;-75
2021/09/01 11:32:18;;;;;;;16.70;10.77;;;17.90;99.90;;;;;;5038020;28;20529;-75
2021/09/01 11:34:44;;;;;;;17.20;10.00;;;17.90;99.90;;;;;;5050041;28;20505;-75
2021/09/01 11:37:11;;;;;;;13.63;9.73;;;17.80;99.90;;;;;;5046003;28;20509;-75
2021/09/01 11:39:41;;;;;;;12.57;9.30;;;17.80;99.90;;;;;;5048409;28;20748;-75
2021/09/01 11:42:08;;;;;;;13.90;9.63;;;17.70;99.90;;;;;;5047319;28;20446;-75
2021/09/01 11:44:34;;;;;;;15.47;9.80;;;17.60;99.90;;;;;;5045913;28;20798;-75
2021/09/01 11:47:00;;;;;;;18.00;11.63;;;17.50;99.90;;;;;;5047817;28;20418;-75
2021/09/01 11:49:25;;;;;;;15.93;10.30;;;17.40;99.90;;;;;;5045870;28;20180;-76
2021/09/01 11:51:51;;;;;;;15.50;10.83;;;17.40;99.90;;;;;;5049560;28;20234;-75
2021/09/01 11:54:18;;;;;;;14.47;10.73;;;17.30;99.90;;;;;;5043254;28;20560;-76
2021/09/01 11:56:43;;;;;;;13.80;10.50;;;17.30;99.90;;;;;;5048172;28;20183;-75
2021/09/01 11:59:11;;;;;;;16.47;10.20;;;17.30;99.90;;;;;;5049261;28;20767;-74
2021/09/01 12:01:55;;;;;;;15.23;10.47;;;17.30;99.90;;;;;;5046043;28;20419;-75
2021/09/01 12:04:22;;;;;;;16.43;12.47;;;17.30;99.90;;;;;;5042559;28;20497;-75
2021/09/01 12:06:53;;;;;;;16.27;12.70;;;17.30;99.90;;;;;;5045898;28;20411;-75
2021/09/01 12:09:21;;;;;;;21.93;13.47;;;17.30;99.90;;;;;;5043455;28;20517;-76
2021/09/01 12:11:51;;;;;;;22.10;12.70;;;17.20;99.90;;;;;;5039535;28;20518;-75
2021/09/01 12:14:20;;;;;;;16.70;12.23;;;17.30;99.90;;;;;;5047413;28;20553;-75
2021/09/01 12:16:45;;;;;;;17.10;12.53;;;17.30;99.90;;;;;;5047179;28;20484;-75
2021/09/01 12:19:13;;;;;;;15.27;11.83;;;17.30;99.90;;;;;;5047629;28;20431;-75
2021/09/01 12:24:27;;;;;;;15.17;10.57;;;17.40;99.90;;;;;;5068440;28;20528;-73
2021/09/01 12:32:17;;;;;;;14.87;10.33;;;17.50;99.90;;;;;;5049824;28;21180;-73
2021/09/01 12:34:51;;;;;;;14.30;9.77;;;17.60;99.90;;;;;;5032126;28;20420;-73
2021/09/01 12:37:27;;;;;;;16.47;10.20;;;17.70;99.90;;;;;;5029356;28;20423;-73
2021/09/01 12:39:56;;;;;;;11.70;8.37;;;17.70;99.90;;;;;;5027618;28;21082;-73
2021/09/01 12:42:26;;;;;;;12.80;9.00;;;17.80;99.90;;;;;;5025482;28;20434;-73
2021/09/01 12:44:56;;;;;;;11.90;7.80;;;17.90;99.90;;;;;;5026843;28;20426;-73
2021/09/01 12:47:23;;;;;;;7.33;5.97;;;18.00;99.90;;;;;;5033145;28;20832;-73
2021/09/01 12:49:51;;;;;;;8.40;6.53;;;18.00;99.90;;;;;;5024951;28;20431;-73
2021/09/01 12:52:18;;;;;;;10.20;6.70;;;18.10;99.90;;;;;;5021381;28;20434;-73
2021/09/01 12:54:44;;;;;;;11.33;7.27;;;18.10;99.90;;;;;;5021627;28;20501;-73
2021/09/01 12:57:10;;;;;;;11.77;7.37;;;18.10;99.90;;;;;;5025779;28;20472;-73
2021/09/01 12:59:35;;;;;;;15.90;9.20;;;18.10;99.90;;;;;;5024545;28;20229;-73
2021/09/01 13:02:03;;;;;;;12.30;8.20;;;18.10;99.90;;;;;;5031999;28;20195;-73
2021/09/01 13:04:29;;;;;;;16.00;7.53;;;18.10;99.90;;;;;;5027817;28;20573;-73
2021/09/01 13:06:56;;;;;;;10.87;7.50;;;18.10;99.90;;;;;;5024403;28;20510;-73
2021/09/01 13:09:23;;;;;;;11.07;6.60;;;18.20;99.90;;;;;;5025625;28;20219;-73
2021/09/01 13:11:48;;;;;;;12.90;6.93;;;18.20;99.90;;;;;;5027944;28;21006;-73
2021/09/01 13:14:14;;;;;;;9.60;6.60;;;18.20;99.90;;;;;;5022546;28;20431;-73
2021/09/01 13:16:40;;;;;;;11.60;7.37;;;18.30;99.90;;;;;;5022491;28;20173;-73
2021/09/01 13:19:05;;;;;;;10.77;7.57;;;18.30;99.90;;;;;;5009301;28;20170;-73
2021/09/01 13:21:31;;;;;;;8.60;6.80;;;18.20;99.90;;;;;;5025539;28;20259;-73
2021/09/01 13:23:57;;;;;;;9.40;5.97;;;18.20;99.90;;;;;;5027980;28;20189;-73
2021/09/01 13:26:22;;;;;;;11.03;7.60;;;18.20;99.90;;;;;;5027044;28;20184;-73
2021/09/01 13:28:48;;;;;;;12.57;6.13;;;18.10;99.90;;;;;;5024102;28;20513;-73
2021/09/01 13:31:14;;;;;;;8.33;6.20;;;18.10;99.90;;;;;;5017471;28;20215;-73